sensor_id;sensor_type;location;lat;lon;timestamp;pressure;altitude;pressure_sealevel;temperature;humidity
56944;BME280;42848;42.524;12.052;2023-02-17T00:00:25;98070.78;;;8.32;100.00
56944;BME280;42848;42.524;12.052;2023-02-17T00:02:55;98071.31;;;8.14;100.00
56944;BME280;42848;42.524;12.052;2023-02-17T00:05:21;98063.72;;;8.46;100.00
56944;BME280;42848;42.524;12.052;2023-02-17T00:07:47;98069.13;;;8.57;100.00
56944;BME280;42848;42.524;12.052;2023-02-17T00:10:13;98072.13;;;8.55;100.00
56944;BME280;42848;42.524;12.052;2023-02-17T00:12:38;98070.50;;;8.54;100.00
56944;BME280;42848;42.524;12.052;2023-02-17T00:15:04;98056.44;;;8.42;100.00
56944;BME280;42848;42.524;12.052;2023-02-17T00:17:30;98069.97;;;8.47;100.00
56944;BME280;42848;42.524;12.052;2023-02-17T00:19:56;98064.28;;;8.43;100.00
56944;BME280;42848;42.524;12.052;2023-02-17T00:22:21;98059.66;;;8.28;100.00
56944;BME280;42848;42.524;12.052;2023-02-17T00:24:47;98058.59;;;8.40;100.00
56944;BME280;42848;42.524;12.052;2023-02-17T00:27:13;98061.31;;;8.40;100.00
56944;BME280;42848;42.524;12.052;2023-02-17T00:29:38;98066.19;;;8.38;100.00
56944;BME280;42848;42.524;12.052;2023-02-17T00:32:04;98065.63;;;8.25;100.00
56944;BME280;42848;42.524;12.052;2023-02-17T00:34:31;98064.81;;;8.30;100.00
56944;BME280;42848;42.524;12.052;2023-02-17T00:36:57;98066.16;;;8.27;100.00
56944;BME280;42848;42.524;12.052;2023-02-17T00:39:22;98055.34;;;8.27;100.00
56944;BME280;42848;42.524;12.052;2023-02-17T00:41:48;98049.66;;;8.39;100.00
56944;BME280;42848;42.524;12.052;2023-02-17T00:44:16;98052.94;;;8.36;100.00
56944;BME280;42848;42.524;12.052;2023-02-17T00:46:43;98053.16;;;8.30;100.00
56944;BME280;42848;42.524;12.052;2023-02-17T00:49:24;98052.13;;;8.15;100.00
56944;BME280;42848;42.524;12.052;2023-02-17T00:51:50;98053.19;;;8.19;100.00
56944;BME280;42848;42.524;12.052;2023-02-17T00:54:17;98045.88;;;8.25;100.00
56944;BME280;42848;42.524;12.052;2023-02-17T00:56:44;98050.47;;;8.19;100.00
56944;BME280;42848;42.524;12.052;2023-02-17T00:59:10;98058.59;;;8.14;100.00
56944;BME280;42848;42.524;12.052;2023-02-17T01:01:37;98053.75;;;8.37;100.00
56944;BME280;42848;42.524;12.052;2023-02-17T01:04:03;98056.97;;;8.39;100.00
56944;BME280;42848;42.524;12.052;2023-02-17T01:06:32;98050.50;;;8.35;100.00
56944;BME280;42848;42.524;12.052;2023-02-17T01:08:59;98052.09;;;8.25;100.00
56944;BME280;42848;42.524;12.052;2023-02-17T01:11:29;98041.28;;;8.41;100.00
56944;BME280;42848;42.524;12.052;2023-02-17T01:13:55;98045.09;;;8.35;100.00
56944;BME280;42848;42.524;12.052;2023-02-17T01:16:29;98048.28;;;8.32;100.00
56944;BME280;42848;42.524;12.052;2023-02-17T01:19:03;98037.75;;;8.25;100.00
56944;BME280;42848;42.524;12.052;2023-02-17T01:21:30;98036.16;;;8.24;100.00
56944;BME280;42848;42.524;12.052;2023-02-17T01:23:58;98042.09;;;8.36;100.00
56944;BME280;42848;42.524;12.052;2023-02-17T01:26:26;98040.19;;;8.11;100.00
56944;BME280;42848;42.524;12.052;2023-02-17T01:28:53;98029.94;;;8.23;100.00
56944;BME280;42848;42.524;12.052;2023-02-17T01:31:19;98026.69;;;8.16;100.00
56944;BME280;42848;42.524;12.052;2023-02-17T01:33:46;98027.22;;;8.23;100.00
56944;BME280;42848;42.524;12.052;2023-02-17T01:36:14;98019.34;;;8.22;100.00
56944;BME280;42848;42.524;12.052;2023-02-17T01:38:40;98018.53;;;8.32;100.00
56944;BME280;42848;42.524;12.052;2023-02-17T01:41:07;98020.16;;;8.27;100.00
56944;BME280;42848;42.524;12.052;2023-02-17T01:43:34;98016.91;;;8.41;100.00
56944;BME280;42848;42.524;12.052;2023-02-17T01:46:01;98014.50;;;8.24;100.00
56944;BME280;42848;42.524;12.052;2023-02-17T01:51:02;97999.38;;;8.23;100.00
56944;BME280;42848;42.524;12.052;2023-02-17T01:53:38;98000.72;;;8.10;100.00
56944;BME280;42848;42.524;12.052;2023-02-17T01:56:06;98001.22;;;8.22;100.00
56944;BME280;42848;42.524;12.052;2023-02-17T01:58:33;98000.69;;;8.20;100.00
56944;BME280;42848;42.524;12.052;2023-02-17T02:01:03;98007.47;;;8.23;100.00
56944;BME280;42848;42.524;12.052;2023-02-17T02:03:32;97998.03;;;8.15;100.00
56944;BME280;42848;42.524;12.052;2023-02-17T02:06:00;98007.47;;;8.28;100.00
56944;BME280;42848;42.524;12.052;2023-02-17T02:08:29;98005.03;;;8.37;100.00
56944;BME280;42848;42.524;12.052;2023-02-17T02:10:59;98009.34;;;8.33;100.00
56944;BME280;42848;42.524;12.052;2023-02-17T02:13:24;98003.97;;;8.07;100.00
56944;BME280;42848;42.524;12.052;2023-02-17T02:16:10;98000.69;;;8.20;100.00
56944;BME280;42848;42.524;12.052;2023-02-17T02:23:55;98000.16;;;8.28;100.00
56944;BME280;42848;42.524;12.052;2023-02-17T02:33:09;97994.78;;;7.93;100.00
56944;BME280;42848;42.524;12.052;2023-02-17T02:35:50;97991.22;;;8.28;100.00
56944;BME280;42848;42.524;12.052;2023-02-17T02:38:46;97994.75;;;8.13;100.00
56944;BME280;42848;42.524;12.052;2023-02-17T02:41:29;97999.09;;;8.19;100.00
56944;BME280;42848;42.524;12.052;2023-02-17T02:43:56;97995.00;;;8.27;100.00
56944;BME280;42848;42.524;12.052;2023-02-17T02:46:22;97994.75;;;8.13;100.00
56944;BME280;42848;42.524;12.052;2023-02-17T02:48:49;98000.69;;;8.20;100.00
56944;BME280;42848;42.524;12.052;2023-02-17T02:51:26;97985.59;;;8.14;100.00
56944;BME280;42848;42.524;12.052;2023-02-17T02:59:38;97986.13;;;8.16;100.00
56944;BME280;42848;42.524;12.052;2023-02-17T03:04:56;97996.06;;;8.31;100.00
56944;BME280;42848;42.524;12.052;2023-02-17T03:07:58;97999.63;;;8.26;100.00
56944;BME280;42848;42.524;12.052;2023-02-17T03:10:27;97987.16;;;8.31;100.00
56944;BME280;42848;42.524;12.052;2023-02-17T03:12:52;97989.34;;;8.34;100.00
56944;BME280;42848;42.524;12.052;2023-02-17T03:15:32;97986.91;;;8.32;100.00
56944;BME280;42848;42.524;12.052;2023-02-17T03:18:00;97995.28;;;8.20;100.00
56944;BME280;42848;42.524;12.052;2023-02-17T03:20:34;97993.13;;;8.17;100.00
56944;BME280;42848;42.524;12.052;2023-02-17T03:23:01;97991.78;;;8.25;100.00
56944;BME280;42848;42.524;12.052;2023-02-17T03:25:27;97995.56;;;8.34;100.00
56944;BME280;42848;42.524;12.052;2023-02-17T03:27:53;97996.91;;;8.26;100.00
56944;BME280;42848;42.524;12.052;2023-02-17T03:30:18;98001.22;;;8.22;100.00
56944;BME280;42848;42.524;12.052;2023-02-17T03:32:44;97999.09;;;8.24;100.00
56944;BME280;42848;42.524;12.052;2023-02-17T03:35:11;97995.31;;;8.10;100.00
56944;BME280;42848;42.524;12.052;2023-02-17T03:37:37;97999.09;;;8.19;100.00
56944;BME280;42848;42.524;12.052;2023-02-17T03:40:04;97994.75;;;8.18;100.00
56944;BME280;42848;42.524;12.052;2023-02-17T03:42:30;97999.34;;;8.38;100.00
56944;BME280;42848;42.524;12.052;2023-02-17T03:44:56;98001.78;;;8.24;100.00
56944;BME280;42848;42.524;12.052;2023-02-17T03:47:22;97996.63;;;8.28;100.00
56944;BME280;42848;42.524;12.052;2023-02-17T03:49:47;97990.97;;;8.24;100.00
56944;BME280;42848;42.524;12.052;2023-02-17T03:52:13;97999.34;;;8.28;100.00
56944;BME280;42848;42.524;12.052;2023-02-17T03:54:39;97991.00;;;8.14;100.00
56944;BME280;42848;42.524;12.052;2023-02-17T03:57:04;97990.19;;;8.14;100.00
56944;BME280;42848;42.524;12.052;2023-02-17T03:59:30;97988.53;;;8.23;100.00
56944;BME280;42848;42.524;12.052;2023-02-17T04:01:55;97994.50;;;8.15;100.00
56944;BME280;42848;42.524;12.052;2023-02-17T04:04:21;97996.41;;;7.94;100.00
56944;BME280;42848;42.524;12.052;2023-02-17T04:06:46;97985.56;;;8.24;100.00
56944;BME280;42848;42.524;12.052;2023-02-17T04:09:12;97988.28;;;8.09;100.00
56944;BME280;42848;42.524;12.052;2023-02-17T04:11:38;97985.56;;;8.24;100.00
56944;BME280;42848;42.524;12.052;2023-02-17T04:14:03;97990.94;;;8.30;100.00
56944;BME280;42848;42.524;12.052;2023-02-17T04:16:29;97997.47;;;8.18;100.00
56944;BME280;42848;42.524;12.052;2023-02-17T04:18:55;97993.41;;;8.21;100.00
56944;BME280;42848;42.524;12.052;2023-02-17T04:21:20;97990.44;;;8.17;100.00
56944;BME280;42848;42.524;12.052;2023-02-17T04:23:46;98007.75;;;8.01;100.00
56944;BME280;42848;42.524;12.052;2023-02-17T04:26:11;98000.72;;;8.10;100.00
56944;BME280;42848;42.524;12.052;2023-02-17T04:28:38;98007.47;;;8.18;100.00
56944;BME280;42848;42.524;12.052;2023-02-17T04:31:04;97996.94;;;8.11;100.00
56944;BME280;42848;42.524;12.052;2023-02-17T04:33:30;97997.72;;;8.12;100.00
56944;BME280;42848;42.524;12.052;2023-02-17T04:35:55;97994.47;;;8.20;100.00
56944;BME280;42848;42.524;12.052;2023-02-17T04:38:25;97994.53;;;7.89;100.00
56944;BME280;42848;42.524;12.052;2023-02-17T04:40:53;98007.75;;;8.11;100.00
56944;BME280;42848;42.524;12.052;2023-02-17T04:43:19;98007.50;;;8.08;100.00
56944;BME280;42848;42.524;12.052;2023-02-17T04:45:45;98004.53;;;7.99;100.00
56944;BME280;42848;42.524;12.052;2023-02-17T04:48:11;97999.34;;;8.13;100.00
56944;BME280;42848;42.524;12.052;2023-02-17T04:50:37;97999.38;;;7.92;100.00
56944;BME280;42848;42.524;12.052;2023-02-17T04:53:02;98000.69;;;8.20;100.00
56944;BME280;42848;42.524;12.052;2023-02-17T04:55:29;98001.50;;;8.21;100.00
56944;BME280;42848;42.524;12.052;2023-02-17T04:57:55;98000.72;;;8.10;100.00
56944;BME280;42848;42.524;12.052;2023-02-17T05:00:21;97989.34;;;8.23;100.00
56944;BME280;42848;42.524;12.052;2023-02-17T05:02:46;97989.88;;;8.20;100.00
56944;BME280;42848;42.524;12.052;2023-02-17T05:05:12;97995.06;;;8.07;100.00
56944;BME280;42848;42.524;12.052;2023-02-17T05:07:41;97989.88;;;8.20;100.00
56944;BME280;42848;42.524;12.052;2023-02-17T05:10:07;97989.31;;;8.28;100.00
56944;BME280;42848;42.524;12.052;2023-02-17T05:12:34;97995.81;;;8.27;100.00
56944;BME280;42848;42.524;12.052;2023-02-17T05:14:59;97994.75;;;8.23;100.00
56944;BME280;42848;42.524;12.052;2023-02-17T05:17:26;97997.72;;;8.32;100.00
56944;BME280;42848;42.524;12.052;2023-02-17T05:19:51;98002.34;;;8.16;100.00
56944;BME280;42848;42.524;12.052;2023-02-17T05:22:17;98005.88;;;7.86;100.00
56944;BME280;42848;42.524;12.052;2023-02-17T05:24:42;97998.28;;;8.19;100.00
56944;BME280;42848;42.524;12.052;2023-02-17T05:27:08;98003.41;;;8.20;100.00
56944;BME280;42848;42.524;12.052;2023-02-17T05:29:34;98006.09;;;8.20;100.00
56944;BME280;42848;42.524;12.052;2023-02-17T05:31:59;97999.34;;;8.13;100.00
56944;BME280;42848;42.524;12.052;2023-02-17T05:34:25;97994.75;;;8.18;100.00
56944;BME280;42848;42.524;12.052;2023-02-17T05:36:50;97991.50;;;8.21;100.00
56944;BME280;42848;42.524;12.052;2023-02-17T05:39:16;98003.94;;;8.12;100.00
56944;BME280;42848;42.524;12.052;2023-02-17T05:41:41;98015.31;;;8.24;100.00
56944;BME280;42848;42.524;12.052;2023-02-17T05:44:07;98006.13;;;8.00;100.00
56944;BME280;42848;42.524;12.052;2023-02-17T05:46:32;98018.53;;;8.21;100.00
56944;BME280;42848;42.524;12.052;2023-02-17T05:48:58;98010.97;;;8.13;100.00
56944;BME280;42848;42.524;12.052;2023-02-17T05:51:24;98015.88;;;8.06;100.00
56944;BME280;42848;42.524;12.052;2023-02-17T05:53:49;98012.63;;;8.14;100.00
56944;BME280;42848;42.524;12.052;2023-02-17T05:56:15;98020.19;;;8.12;100.00
56944;BME280;42848;42.524;12.052;2023-02-17T05:58:40;98026.69;;;8.11;100.00
56944;BME280;42848;42.524;12.052;2023-02-17T06:01:08;98021.78;;;8.13;100.00
56944;BME280;42848;42.524;12.052;2023-02-17T06:03:34;98031.53;;;8.19;100.00
56944;BME280;42848;42.524;12.052;2023-02-17T06:05:59;98023.44;;;8.19;100.00
56944;BME280;42848;42.524;12.052;2023-02-17T06:08:25;98033.69;;;8.22;100.00
56944;BME280;42848;42.524;12.052;2023-02-17T06:10:52;98039.13;;;8.17;100.00
56944;BME280;42848;42.524;12.052;2023-02-17T06:13:19;98041.56;;;8.19;100.00
56944;BME280;42848;42.524;12.052;2023-02-17T06:15:45;98050.47;;;8.09;100.00
56944;BME280;42848;42.524;12.052;2023-02-17T06:18:11;98053.72;;;8.16;100.00
56944;BME280;42848;42.524;12.052;2023-02-17T06:20:37;98055.63;;;7.90;100.00
56944;BME280;42848;42.524;12.052;2023-02-17T06:23:02;98051.84;;;8.07;100.00
56944;BME280;42848;42.524;12.052;2023-02-17T06:25:28;98059.13;;;8.21;100.00
56944;BME280;42848;42.524;12.052;2023-02-17T06:27:53;98060.75;;;8.02;100.00
56944;BME280;42848;42.524;12.052;2023-02-17T06:30:19;98059.41;;;7.99;100.00
56944;BME280;42848;42.524;12.052;2023-02-17T06:32:46;98068.59;;;7.98;100.00
56944;BME280;42848;42.524;12.052;2023-02-17T06:35:12;98071.56;;;8.17;100.00
56944;BME280;42848;42.524;12.052;2023-02-17T06:37:38;98064.56;;;8.16;100.00
56944;BME280;42848;42.524;12.052;2023-02-17T06:40:04;98071.84;;;8.21;100.00
56944;BME280;42848;42.524;12.052;2023-02-17T06:42:29;98072.13;;;8.24;100.00
56944;BME280;42848;42.524;12.052;2023-02-17T06:44:55;98069.69;;;8.28;100.00
56944;BME280;42848;42.524;12.052;2023-02-17T06:47:21;98072.13;;;8.24;100.00
56944;BME280;42848;42.524;12.052;2023-02-17T06:49:46;98075.63;;;8.30;100.00
56944;BME280;42848;42.524;12.052;2023-02-17T06:52:12;98068.84;;;8.22;100.00
56944;BME280;42848;42.524;12.052;2023-02-17T06:54:37;98076.16;;;8.12;100.00
56944;BME280;42848;42.524;12.052;2023-02-17T06:57:03;98077.50;;;8.04;100.00
56944;BME280;42848;42.524;12.052;2023-02-17T06:59:31;98072.66;;;8.26;100.00
56944;BME280;42848;42.524;12.052;2023-02-17T07:01:57;98073.22;;;8.23;100.00
56944;BME280;42848;42.524;12.052;2023-02-17T07:04:23;98077.25;;;8.21;100.00
56944;BME280;42848;42.524;12.052;2023-02-17T07:06:48;98084.56;;;8.25;100.00
56944;BME280;42848;42.524;12.052;2023-02-17T07:09:14;98089.16;;;8.25;100.00
56944;BME280;42848;42.524;12.052;2023-02-17T07:11:40;98089.97;;;8.25;100.00
56944;BME280;42848;42.524;12.052;2023-02-17T07:14:06;98089.41;;;8.28;100.00
56944;BME280;42848;42.524;12.052;2023-02-17T07:16:32;98092.69;;;8.25;100.00
56944;BME280;42848;42.524;12.052;2023-02-17T07:18:57;98089.19;;;8.35;100.00
56944;BME280;42848;42.524;12.052;2023-02-17T07:21:23;98087.28;;;8.36;100.00
56944;BME280;42848;42.524;12.052;2023-02-17T07:23:49;98089.44;;;8.39;100.00
56944;BME280;42848;42.524;12.052;2023-02-17T07:26:14;98087.81;;;8.48;100.00
56944;BME280;42848;42.524;12.052;2023-02-17T07:28:40;98089.72;;;8.52;100.00
56944;BME280;42848;42.524;12.052;2023-02-17T07:31:11;98098.13;;;8.51;100.00
56944;BME280;42848;42.524;12.052;2023-02-17T07:33:38;98099.47;;;8.38;100.00
56944;BME280;42848;42.524;12.052;2023-02-17T07:36:11;98101.34;;;8.53;100.00
56944;BME280;42848;42.524;12.052;2023-02-17T07:38:39;98101.63;;;8.51;100.00
56944;BME280;42848;42.524;12.052;2023-02-17T07:41:07;98101.34;;;8.53;100.00
56944;BME280;42848;42.524;12.052;2023-02-17T07:43:34;98104.59;;;8.45;100.00
56944;BME280;42848;42.524;12.052;2023-02-17T07:45:59;98101.59;;;8.26;100.00
56944;BME280;42848;42.524;12.052;2023-02-17T07:48:25;98112.19;;;8.53;100.00
56944;BME280;42848;42.524;12.052;2023-02-17T07:50:51;98102.44;;;8.47;100.00
56944;BME280;42848;42.524;12.052;2023-02-17T07:53:16;98109.47;;;8.48;100.00
56944;BME280;42848;42.524;12.052;2023-02-17T07:55:42;98111.06;;;8.28;100.00
56944;BME280;42848;42.524;12.052;2023-02-17T07:58:07;98109.97;;;8.65;100.00
56944;BME280;42848;42.524;12.052;2023-02-17T08:00:33;98110.50;;;8.67;100.00
56944;BME280;42848;42.524;12.052;2023-02-17T08:02:58;98122.19;;;8.52;100.00
56944;BME280;42848;42.524;12.052;2023-02-17T08:05:24;98118.13;;;8.70;100.00
56944;BME280;42848;42.524;12.052;2023-02-17T08:07:50;98119.75;;;8.56;100.00
56944;BME280;42848;42.524;12.052;2023-02-17T08:10:38;98129.22;;;8.69;100.00
56944;BME280;42848;42.524;12.052;2023-02-17T08:13:24;98135.16;;;8.66;100.00
56944;BME280;42848;42.524;12.052;2023-02-17T08:15:50;98136.50;;;8.68;100.00
56944;BME280;42848;42.524;12.052;2023-02-17T08:18:16;98127.84;;;8.66;100.00
56944;BME280;42848;42.524;12.052;2023-02-17T08:20:41;98133.53;;;8.80;100.00
56944;BME280;42848;42.524;12.052;2023-02-17T08:23:07;98130.03;;;8.69;100.00
56944;BME280;42848;42.524;12.052;2023-02-17T08:25:36;98133.25;;;8.76;100.00
56944;BME280;42848;42.524;12.052;2023-02-17T08:28:03;98123.19;;;8.92;100.00
56944;BME280;42848;42.524;12.052;2023-02-17T08:33:57;98117.53;;;8.83;100.00
56944;BME280;42848;42.524;12.052;2023-02-17T08:36:23;98123.25;;;8.72;100.00
56944;BME280;42848;42.524;12.052;2023-02-17T08:38:53;98130.50;;;8.92;100.00
56944;BME280;42848;42.524;12.052;2023-02-17T08:41:22;98127.59;;;8.63;100.00
56944;BME280;42848;42.524;12.052;2023-02-17T08:43:49;98121.38;;;8.62;100.00
56944;BME280;42848;42.524;12.052;2023-02-17T08:46:15;98130.00;;;8.79;100.00
56944;BME280;42848;42.524;12.052;2023-02-17T08:48:42;98129.44;;;8.98;100.00
56944;BME280;42848;42.524;12.052;2023-02-17T08:51:12;98132.09;;;9.03;100.00
56944;BME280;42848;42.524;12.052;2023-02-17T08:53:38;98130.97;;;9.14;100.00
56944;BME280;42848;42.524;12.052;2023-02-17T08:56:04;98125.06;;;9.02;100.00
56944;BME280;42848;42.524;12.052;2023-02-17T08:58:30;98119.63;;;9.12;100.00
56944;BME280;42848;42.524;12.052;2023-02-17T09:00:56;98129.31;;;9.28;100.00
56944;BME280;42848;42.524;12.052;2023-02-17T09:03:21;98132.09;;;9.03;100.00
56944;BME280;42848;42.524;12.052;2023-02-17T09:05:47;98123.22;;;8.87;100.00
56944;BME280;42848;42.524;12.052;2023-02-17T09:08:13;98131.47;;;9.31;100.00
56944;BME280;42848;42.524;12.052;2023-02-17T09:10:39;98130.09;;;9.39;100.00
56944;BME280;42848;42.524;12.052;2023-02-17T09:13:05;98129.91;;;9.15;100.00
56944;BME280;42848;42.524;12.052;2023-02-17T09:15:30;98122.34;;;9.07;100.00
56944;BME280;42848;42.524;12.052;2023-02-17T09:17:56;98124.22;;;9.17;100.00
56944;BME280;42848;42.524;12.052;2023-02-17T09:20:21;98132.03;;;9.23;100.00
56944;BME280;42848;42.524;12.052;2023-02-17T09:22:47;98129.41;;;9.08;100.00
56944;BME280;42848;42.524;12.052;2023-02-17T09:25:12;98133.41;;;9.21;100.00
56944;BME280;42848;42.524;12.052;2023-02-17T09:27:38;98135.34;;;9.05;100.00
56944;BME280;42848;42.524;12.052;2023-02-17T09:30:04;98138.50;;;9.37;100.00
56944;BME280;42848;42.524;12.052;2023-02-17T09:32:30;98135.78;;;9.32;100.00
56944;BME280;42848;42.524;12.052;2023-02-17T09:34:57;98139.31;;;9.38;100.00
56944;BME280;42848;42.524;12.052;2023-02-17T09:37:25;98137.59;;;9.57;100.00
56944;BME280;42848;42.524;12.052;2023-02-17T09:39:50;98143.06;;;9.47;100.00
56944;BME280;42848;42.524;12.052;2023-02-17T09:42:22;98140.47;;;9.76;100.00
56944;BME280;42848;42.524;12.052;2023-02-17T09:44:58;98141.16;;;9.53;100.00
56944;BME280;42848;42.524;12.052;2023-02-17T09:47:32;98140.59;;;9.61;100.00
56944;BME280;42848;42.524;12.052;2023-02-17T09:50:26;98144.41;;;9.55;100.00
56944;BME280;42848;42.524;12.052;2023-02-17T09:53:01;98144.03;;;9.72;100.00
56944;BME280;42848;42.524;12.052;2023-02-17T09:55:36;98151.38;;;9.66;100.00
56944;BME280;42848;42.524;12.052;2023-02-17T10:00:32;98156.63;;;9.52;100.00
56944;BME280;42848;42.524;12.052;2023-02-17T10:03:21;98149.47;;;9.66;100.00
56944;BME280;42848;42.524;12.052;2023-02-17T10:05:58;98159.97;;;9.88;100.00
56944;BME280;42848;42.524;12.052;2023-02-17T10:08:31;98158.94;;;9.79;100.00
56944;BME280;42848;42.524;12.052;2023-02-17T10:11:39;98158.31;;;9.87;100.00
56944;BME280;42848;42.524;12.052;2023-02-17T10:16:50;98158.88;;;9.84;100.00
56944;BME280;42848;42.524;12.052;2023-02-17T10:19:25;98151.53;;;9.90;100.00
56944;BME280;42848;42.524;12.052;2023-02-17T10:22:13;98159.84;;;10.09;100.00
56944;BME280;42848;42.524;12.052;2023-02-17T10:24:40;98149.16;;;10.22;100.00
56944;BME280;42848;42.524;12.052;2023-02-17T10:35:52;98151.06;;;10.27;100.00
56944;BME280;42848;42.524;12.052;2023-02-17T10:40:54;98141.28;;;10.21;100.00
56944;BME280;42848;42.524;12.052;2023-02-17T10:43:24;98141.56;;;10.19;100.00
56944;BME280;42848;42.524;12.052;2023-02-17T10:45:53;98133.69;;;10.23;100.00
56944;BME280;42848;42.524;12.052;2023-02-17T10:50:58;98131.56;;;10.15;100.00
56944;BME280;42848;42.524;12.052;2023-02-17T10:53:30;98117.16;;;10.19;100.00
56944;BME280;42848;42.524;12.052;2023-02-17T10:56:22;98110.94;;;10.14;100.00
56944;BME280;42848;42.524;12.052;2023-02-17T10:58:56;98108.19;;;10.19;100.00
56944;BME280;42848;42.524;12.052;2023-02-17T11:01:24;98103.84;;;10.23;100.00
56944;BME280;42848;42.524;12.052;2023-02-17T11:04:04;98093.47;;;10.35;100.00
56944;BME280;42848;42.524;12.052;2023-02-17T11:06:31;98102.72;;;10.29;100.00
56944;BME280;42848;42.524;12.052;2023-02-17T11:09:05;98088.06;;;10.30;100.00
56944;BME280;42848;42.524;12.052;2023-02-17T11:11:35;98094.88;;;10.28;100.00
56944;BME280;42848;42.524;12.052;2023-02-17T11:18:58;98077.25;;;10.20;100.00
56944;BME280;42848;42.524;12.052;2023-02-17T11:21:27;98074.00;;;10.23;100.00
56944;BME280;42848;42.524;12.052;2023-02-17T11:24:01;98077.88;;;10.12;100.00
56944;BME280;42848;42.524;12.052;2023-02-17T11:26:30;98072.19;;;10.08;100.00
56944;BME280;42848;42.524;12.052;2023-02-17T11:29:17;98074.66;;;10.05;100.00
56944;BME280;42848;42.524;12.052;2023-02-17T11:34:32;98075.44;;;10.10;100.00
56944;BME280;42848;42.524;12.052;2023-02-17T11:39:42;98060.53;;;10.08;100.00
56944;BME280;42848;42.524;12.052;2023-02-17T11:42:14;98059.69;;;10.12;100.00
56944;BME280;42848;42.524;12.052;2023-02-17T11:44:41;98058.53;;;10.23;100.00
56944;BME280;42848;42.524;12.052;2023-02-17T11:58:40;98049.84;;;10.21;100.00
56944;BME280;42848;42.524;12.052;2023-02-17T12:01:24;98055.56;;;10.15;100.00
56944;BME280;42848;42.524;12.052;2023-02-17T12:12:14;98043.53;;;10.31;100.00
56944;BME280;42848;42.524;12.052;2023-02-17T12:20:48;98025.53;;;10.40;100.00
56944;BME280;42848;42.524;12.052;2023-02-17T12:24:01;98035.47;;;10.50;100.00
56944;BME280;42848;42.524;12.052;2023-02-17T12:26:52;98029.03;;;10.46;99.76
56944;BME280;42848;42.524;12.052;2023-02-17T12:29:33;98032.44;;;10.57;100.00
56944;BME280;42848;42.524;12.052;2023-02-17T12:35:00;98018.03;;;10.56;100.00
56944;BME280;42848;42.524;12.052;2023-02-17T12:37:32;98018.84;;;10.57;99.87
56944;BME280;42848;42.524;12.052;2023-02-17T12:40:05;98023.16;;;10.63;99.83
56944;BME280;42848;42.524;12.052;2023-02-17T12:42:44;98021.63;;;10.51;100.00
56944;BME280;42848;42.524;12.052;2023-02-17T12:45:20;98022.38;;;10.57;99.19
56944;BME280;42848;42.524;12.052;2023-02-17T12:47:55;98018.34;;;10.54;98.04
56944;BME280;42848;42.524;12.052;2023-02-17T12:50:26;98014.88;;;10.73;100.00
56944;BME280;42848;42.524;12.052;2023-02-17T12:52:57;98021.03;;;10.78;100.00
56944;BME280;42848;42.524;12.052;2023-02-17T12:55:40;98010.31;;;10.68;98.09
56944;BME280;42848;42.524;12.052;2023-02-17T12:58:18;98000.72;;;10.76;98.01
56944;BME280;42848;42.524;12.052;2023-02-17T13:00:51;98006.44;;;10.74;97.52
56944;BME280;42848;42.524;12.052;2023-02-17T13:03:18;98011.53;;;10.81;98.58
56944;BME280;42848;42.524;12.052;2023-02-17T13:06:01;98018.50;;;10.87;97.36
56944;BME280;42848;42.524;12.052;2023-02-17T13:11:25;98013.88;;;10.88;97.78
56944;BME280;42848;42.524;12.052;2023-02-17T13:13:52;98013.31;;;10.91;98.27
56944;BME280;42848;42.524;12.052;2023-02-17T13:16:18;98009.50;;;10.92;98.28
56944;BME280;42848;42.524;12.052;2023-02-17T13:18:46;98011.66;;;10.71;97.49
56944;BME280;42848;42.524;12.052;2023-02-17T13:26:34;98011.47;;;10.86;97.40
56944;BME280;42848;42.524;12.052;2023-02-17T13:31:46;98004.97;;;11.06;98.00
56944;BME280;42848;42.524;12.052;2023-02-17T13:34:33;97995.94;;;11.10;96.91
56944;BME280;42848;42.524;12.052;2023-02-17T13:37:13;97991.31;;;11.11;97.34
56944;BME280;42848;42.524;12.052;2023-02-17T13:39:41;98004.16;;;11.05;95.13
56944;BME280;42848;42.524;12.052;2023-02-17T13:44:52;98000.22;;;11.17;95.73
56944;BME280;42848;42.524;12.052;2023-02-17T13:47:26;97999.28;;;11.26;96.10
56944;BME280;42848;42.524;12.052;2023-02-17T13:49:55;97997.41;;;11.22;93.19
56944;BME280;42848;42.524;12.052;2023-02-17T13:52:25;97991.50;;;11.38;92.25
56944;BME280;42848;42.524;12.052;2023-02-17T13:54:56;97982.22;;;11.58;93.56
56944;BME280;42848;42.524;12.052;2023-02-17T13:59:48;97979.06;;;11.51;90.77
56944;BME280;42848;42.524;12.052;2023-02-17T14:02:20;97985.53;;;11.18;92.30
56944;BME280;42848;42.524;12.052;2023-02-17T14:04:46;97980.75;;;11.28;93.77
56944;BME280;42848;42.524;12.052;2023-02-17T14:07:12;97980.63;;;11.38;97.38
56944;BME280;42848;42.524;12.052;2023-02-17T14:09:38;97977.44;;;11.50;100.00
56944;BME280;42848;42.524;12.052;2023-02-17T14:12:16;97973.50;;;11.61;100.00
56944;BME280;42848;42.524;12.052;2023-02-17T14:14:46;97971.19;;;11.68;100.00
56944;BME280;42848;42.524;12.052;2023-02-17T14:17:29;97963.41;;;11.62;100.00
56944;BME280;42848;42.524;12.052;2023-02-17T14:19:57;97967.22;;;11.61;100.00
56944;BME280;42848;42.524;12.052;2023-02-17T14:22:32;97965.44;;;11.70;100.00
56944;BME280;42848;42.524;12.052;2023-02-17T14:25:05;97969.13;;;11.42;100.00
56944;BME280;42848;42.524;12.052;2023-02-17T14:27:45;97958.50;;;11.45;100.00
56944;BME280;42848;42.524;12.052;2023-02-17T14:30:27;97961.72;;;11.47;100.00
56944;BME280;42848;42.524;12.052;2023-02-17T14:35:27;97959.06;;;11.04;100.00
56944;BME280;42848;42.524;12.052;2023-02-17T14:37:53;97963.03;;;10.93;100.00
56944;BME280;42848;42.524;12.052;2023-02-17T14:40:20;97961.47;;;11.06;100.00